Main page
METAR-TAF:

METAR-TAF

Airports :

Limoges – Bellegarde Airport

Limoges, France

latitude: 45-52N, longitude: 001-11E, elevation: 396 m

Current weather observation

The report was made 40 minutes ago, at 05:00 UTC
Wind 4 kt from the East/Northeast
Temperature 17°C
Humidity 55%
Pressure 1019 hPa
Visibility 10 km or more
no clouds below 1500 m and no cumulonimbus

METAR: LFBL 240500Z AUTO 07004KT CAVOK 17/08 Q1019 NOSIG

Time: 07:40 (05:40 UTC)

Forecast

The report was made 6 hours and 40 minutes ago, at 23:00 UTC
Forecast valid from 24 at 00 UTC to 24 at 24 UTC
Wind 5 kt from the Northeast
Visibility 10 km or more
no clouds below 1500 m and no cumulonimbus

TAF: LFBL 232300Z 2400/2424 05005KT CAVOK

Weather observations and forecasts of more than 4000 airports (METAR and TAF reports).

The available stations are represented by yellow and red dots on the map.

Hover mouse over dot to see the name of the station.

Then click to see weather observations and forecasts.

To change the map : click on the green buttons with a black cross to zoom in, on the green button with a dash to zoom out, or on the green arrows for adjacent maps.


METAR-TAF: